sensor_id;sensor_type;location;lat;lon;timestamp;P1;durP1;ratioP1;P2;durP2;ratioP2
6109;SDS011;3085;49.444;11.054;2023-02-01T00:02:07;4.90;;;3.80;;
6109;SDS011;3085;49.444;11.054;2023-02-01T00:04:36;6.50;;;3.67;;
6109;SDS011;3085;49.444;11.054;2023-02-01T00:07:03;5.10;;;3.70;;
6109;SDS011;3085;49.444;11.054;2023-02-01T00:09:29;7.87;;;4.00;;
6109;SDS011;3085;49.444;11.054;2023-02-01T00:11:56;6.27;;;3.33;;
6109;SDS011;3085;49.444;11.054;2023-02-01T00:14:27;4.80;;;3.57;;
6109;SDS011;3085;49.444;11.054;2023-02-01T00:16:54;8.20;;;3.23;;
6109;SDS011;3085;49.444;11.054;2023-02-01T00:19:20;5.40;;;3.73;;
6109;SDS011;3085;49.444;11.054;2023-02-01T00:21:48;4.20;;;3.67;;
6109;SDS011;3085;49.444;11.054;2023-02-01T00:24:15;4.93;;;3.03;;
6109;SDS011;3085;49.444;11.054;2023-02-01T00:26:43;9.47;;;3.60;;
6109;SDS011;3085;49.444;11.054;2023-02-01T00:29:12;5.00;;;3.40;;
6109;SDS011;3085;49.444;11.054;2023-02-01T00:31:40;4.73;;;3.33;;
6109;SDS011;3085;49.444;11.054;2023-02-01T00:34:08;7.60;;;3.80;;
6109;SDS011;3085;49.444;11.054;2023-02-01T00:36:37;5.70;;;4.23;;
6109;SDS011;3085;49.444;11.054;2023-02-01T00:39:05;5.07;;;3.20;;
6109;SDS011;3085;49.444;11.054;2023-02-01T00:41:32;8.47;;;3.53;;
6109;SDS011;3085;49.444;11.054;2023-02-01T00:43:59;5.63;;;3.97;;
6109;SDS011;3085;49.444;11.054;2023-02-01T00:46:26;6.63;;;3.93;;
6109;SDS011;3085;49.444;11.054;2023-02-01T00:48:53;6.57;;;3.97;;
6109;SDS011;3085;49.444;11.054;2023-02-01T00:51:21;8.60;;;4.17;;
6109;SDS011;3085;49.444;11.054;2023-02-01T00:53:49;5.33;;;3.57;;
6109;SDS011;3085;49.444;11.054;2023-02-01T00:56:18;6.07;;;3.93;;
6109;SDS011;3085;49.444;11.054;2023-02-01T00:58:45;6.70;;;4.43;;
6109;SDS011;3085;49.444;11.054;2023-02-01T01:01:14;9.13;;;4.40;;
6109;SDS011;3085;49.444;11.054;2023-02-01T01:03:43;5.10;;;4.10;;
6109;SDS011;3085;49.444;11.054;2023-02-01T01:06:12;6.07;;;3.70;;
6109;SDS011;3085;49.444;11.054;2023-02-01T01:08:40;5.27;;;3.47;;
6109;SDS011;3085;49.444;11.054;2023-02-01T01:11:08;5.90;;;3.63;;
6109;SDS011;3085;49.444;11.054;2023-02-01T01:13:38;7.77;;;4.77;;
6109;SDS011;3085;49.444;11.054;2023-02-01T01:16:05;7.77;;;3.43;;
6109;SDS011;3085;49.444;11.054;2023-02-01T01:18:33;4.23;;;3.40;;
6109;SDS011;3085;49.444;11.054;2023-02-01T01:21:01;4.70;;;3.40;;
6109;SDS011;3085;49.444;11.054;2023-02-01T01:23:30;5.57;;;3.13;;
6109;SDS011;3085;49.444;11.054;2023-02-01T01:25:57;3.80;;;2.90;;
6109;SDS011;3085;49.444;11.054;2023-02-01T01:28:24;15.83;;;3.37;;
6109;SDS011;3085;49.444;11.054;2023-02-01T01:30:52;4.53;;;3.10;;
6109;SDS011;3085;49.444;11.054;2023-02-01T01:33:18;5.70;;;3.43;;
6109;SDS011;3085;49.444;11.054;2023-02-01T01:35:45;7.53;;;3.70;;
6109;SDS011;3085;49.444;11.054;2023-02-01T01:38:12;6.73;;;3.33;;
6109;SDS011;3085;49.444;11.054;2023-02-01T01:40:39;7.83;;;4.00;;
6109;SDS011;3085;49.444;11.054;2023-02-01T01:43:10;5.00;;;2.83;;
6109;SDS011;3085;49.444;11.054;2023-02-01T01:45:40;5.20;;;3.53;;
6109;SDS011;3085;49.444;11.054;2023-02-01T01:48:08;5.50;;;3.40;;
6109;SDS011;3085;49.444;11.054;2023-02-01T01:50:40;6.10;;;3.50;;
6109;SDS011;3085;49.444;11.054;2023-02-01T01:53:13;5.57;;;3.90;;
6109;SDS011;3085;49.444;11.054;2023-02-01T01:55:44;5.50;;;3.40;;
6109;SDS011;3085;49.444;11.054;2023-02-01T01:58:14;4.83;;;3.50;;
6109;SDS011;3085;49.444;11.054;2023-02-01T02:00:43;3.80;;;2.90;;
6109;SDS011;3085;49.444;11.054;2023-02-01T02:03:13;6.70;;;2.80;;
6109;SDS011;3085;49.444;11.054;2023-02-01T02:05:46;6.37;;;3.53;;
6109;SDS011;3085;49.444;11.054;2023-02-01T02:08:15;7.47;;;3.40;;
6109;SDS011;3085;49.444;11.054;2023-02-01T02:10:45;3.60;;;3.20;;
6109;SDS011;3085;49.444;11.054;2023-02-01T02:13:27;5.30;;;3.00;;
6109;SDS011;3085;49.444;11.054;2023-02-01T02:16:03;4.63;;;2.93;;
6109;SDS011;3085;49.444;11.054;2023-02-01T02:18:41;4.33;;;3.10;;
6109;SDS011;3085;49.444;11.054;2023-02-01T02:21:23;3.00;;;2.70;;
6109;SDS011;3085;49.444;11.054;2023-02-01T02:27:21;3.43;;;2.80;;
6109;SDS011;3085;49.444;11.054;2023-02-01T02:30:01;3.93;;;3.10;;
6109;SDS011;3085;49.444;11.054;2023-02-01T02:32:50;4.70;;;3.23;;
6109;SDS011;3085;49.444;11.054;2023-02-01T02:35:45;3.83;;;2.83;;
6109;SDS011;3085;49.444;11.054;2023-02-01T02:38:19;3.43;;;2.83;;
6109;SDS011;3085;49.444;11.054;2023-02-01T02:40:54;3.70;;;3.10;;
6109;SDS011;3085;49.444;11.054;2023-02-01T02:43:29;4.67;;;2.60;;
6109;SDS011;3085;49.444;11.054;2023-02-01T02:46:35;5.30;;;3.20;;
6109;SDS011;3085;49.444;11.054;2023-02-01T02:51:51;4.20;;;3.20;;
6109;SDS011;3085;49.444;11.054;2023-02-01T02:54:54;5.90;;;2.97;;
6109;SDS011;3085;49.444;11.054;2023-02-01T02:57:24;5.30;;;3.83;;
6109;SDS011;3085;49.444;11.054;2023-02-01T03:00:12;7.53;;;3.50;;
6109;SDS011;3085;49.444;11.054;2023-02-01T03:02:59;4.80;;;3.50;;
6109;SDS011;3085;49.444;11.054;2023-02-01T03:05:45;8.33;;;4.90;;
6109;SDS011;3085;49.444;11.054;2023-02-01T03:08:17;6.30;;;3.50;;
6109;SDS011;3085;49.444;11.054;2023-02-01T03:10:47;4.10;;;3.60;;
6109;SDS011;3085;49.444;11.054;2023-02-01T03:13:22;7.87;;;4.10;;
6109;SDS011;3085;49.444;11.054;2023-02-01T03:15:56;4.63;;;3.43;;
6109;SDS011;3085;49.444;11.054;2023-02-01T03:18:28;3.20;;;2.90;;
6109;SDS011;3085;49.444;11.054;2023-02-01T03:21:00;6.70;;;4.00;;
6109;SDS011;3085;49.444;11.054;2023-02-01T03:23:32;6.53;;;3.53;;
6109;SDS011;3085;49.444;11.054;2023-02-01T03:26:02;4.97;;;3.67;;
6109;SDS011;3085;49.444;11.054;2023-02-01T03:28:32;5.80;;;3.77;;
6109;SDS011;3085;49.444;11.054;2023-02-01T03:31:01;6.90;;;4.17;;
6109;SDS011;3085;49.444;11.054;2023-02-01T03:33:28;6.40;;;3.90;;
6109;SDS011;3085;49.444;11.054;2023-02-01T03:36:00;3.73;;;3.23;;
6109;SDS011;3085;49.444;11.054;2023-02-01T03:38:34;8.83;;;4.80;;
6109;SDS011;3085;49.444;11.054;2023-02-01T03:41:08;6.13;;;3.93;;
6109;SDS011;3085;49.444;11.054;2023-02-01T03:43:41;6.23;;;3.63;;
6109;SDS011;3085;49.444;11.054;2023-02-01T03:46:16;4.90;;;3.20;;
6109;SDS011;3085;49.444;11.054;2023-02-01T03:48:47;6.47;;;3.93;;
6109;SDS011;3085;49.444;11.054;2023-02-01T03:51:15;6.93;;;3.90;;
6109;SDS011;3085;49.444;11.054;2023-02-01T03:53:45;7.73;;;4.40;;
6109;SDS011;3085;49.444;11.054;2023-02-01T03:56:14;6.23;;;3.87;;
6109;SDS011;3085;49.444;11.054;2023-02-01T03:58:42;5.60;;;3.67;;
6109;SDS011;3085;49.444;11.054;2023-02-01T04:01:23;7.43;;;4.17;;
6109;SDS011;3085;49.444;11.054;2023-02-01T04:03:50;5.70;;;3.87;;
6109;SDS011;3085;49.444;11.054;2023-02-01T04:06:17;11.50;;;5.00;;
6109;SDS011;3085;49.444;11.054;2023-02-01T04:08:45;5.00;;;3.60;;
6109;SDS011;3085;49.444;11.054;2023-02-01T04:11:12;4.73;;;3.57;;
6109;SDS011;3085;49.444;11.054;2023-02-01T04:13:39;5.13;;;3.70;;
6109;SDS011;3085;49.444;11.054;2023-02-01T04:16:05;8.33;;;4.30;;
6109;SDS011;3085;49.444;11.054;2023-02-01T04:18:32;5.90;;;3.70;;
6109;SDS011;3085;49.444;11.054;2023-02-01T04:20:59;6.40;;;4.03;;
6109;SDS011;3085;49.444;11.054;2023-02-01T04:23:27;8.03;;;4.50;;
6109;SDS011;3085;49.444;11.054;2023-02-01T04:25:55;7.83;;;4.50;;
6109;SDS011;3085;49.444;11.054;2023-02-01T04:28:26;6.80;;;4.70;;
6109;SDS011;3085;49.444;11.054;2023-02-01T04:30:53;7.83;;;4.20;;
6109;SDS011;3085;49.444;11.054;2023-02-01T04:33:20;8.93;;;3.90;;
6109;SDS011;3085;49.444;11.054;2023-02-01T04:35:46;6.73;;;4.10;;
6109;SDS011;3085;49.444;11.054;2023-02-01T04:38:13;6.70;;;3.80;;
6109;SDS011;3085;49.444;11.054;2023-02-01T04:40:40;6.00;;;4.17;;
6109;SDS011;3085;49.444;11.054;2023-02-01T04:43:08;4.20;;;3.13;;
6109;SDS011;3085;49.444;11.054;2023-02-01T04:45:35;5.17;;;3.83;;
6109;SDS011;3085;49.444;11.054;2023-02-01T04:48:02;5.37;;;3.53;;
6109;SDS011;3085;49.444;11.054;2023-02-01T04:50:29;5.97;;;3.70;;
6109;SDS011;3085;49.444;11.054;2023-02-01T04:52:56;4.97;;;3.60;;
6109;SDS011;3085;49.444;11.054;2023-02-01T04:55:22;6.40;;;3.83;;
6109;SDS011;3085;49.444;11.054;2023-02-01T04:57:49;6.97;;;4.63;;
6109;SDS011;3085;49.444;11.054;2023-02-01T05:00:18;5.80;;;3.63;;
6109;SDS011;3085;49.444;11.054;2023-02-01T05:02:45;8.30;;;4.80;;
6109;SDS011;3085;49.444;11.054;2023-02-01T05:05:12;4.83;;;3.43;;
6109;SDS011;3085;49.444;11.054;2023-02-01T05:07:38;5.43;;;3.10;;
6109;SDS011;3085;49.444;11.054;2023-02-01T05:10:06;4.40;;;3.33;;
6109;SDS011;3085;49.444;11.054;2023-02-01T05:12:33;7.57;;;4.20;;
6109;SDS011;3085;49.444;11.054;2023-02-01T05:15:19;12.40;;;6.00;;
6109;SDS011;3085;49.444;11.054;2023-02-01T05:17:46;7.17;;;4.03;;
6109;SDS011;3085;49.444;11.054;2023-02-01T05:20:13;5.60;;;3.90;;
6109;SDS011;3085;49.444;11.054;2023-02-01T05:22:40;5.40;;;3.90;;
6109;SDS011;3085;49.444;11.054;2023-02-01T05:25:08;6.50;;;4.07;;
6109;SDS011;3085;49.444;11.054;2023-02-01T05:27:35;4.77;;;3.37;;
6109;SDS011;3085;49.444;11.054;2023-02-01T05:30:02;7.70;;;4.40;;
6109;SDS011;3085;49.444;11.054;2023-02-01T05:32:30;8.20;;;4.60;;
6109;SDS011;3085;49.444;11.054;2023-02-01T05:34:57;6.57;;;3.77;;
6109;SDS011;3085;49.444;11.054;2023-02-01T05:37:24;4.60;;;3.90;;
6109;SDS011;3085;49.444;11.054;2023-02-01T05:39:51;4.43;;;3.17;;
6109;SDS011;3085;49.444;11.054;2023-02-01T05:42:18;5.67;;;3.77;;
6109;SDS011;3085;49.444;11.054;2023-02-01T05:44:45;4.50;;;3.80;;
6109;SDS011;3085;49.444;11.054;2023-02-01T05:47:12;7.87;;;4.50;;
6109;SDS011;3085;49.444;11.054;2023-02-01T05:49:40;5.40;;;4.00;;
6109;SDS011;3085;49.444;11.054;2023-02-01T05:52:07;6.80;;;3.63;;
6109;SDS011;3085;49.444;11.054;2023-02-01T05:54:37;5.27;;;3.60;;
6109;SDS011;3085;49.444;11.054;2023-02-01T05:57:03;6.40;;;4.40;;
6109;SDS011;3085;49.444;11.054;2023-02-01T05:59:30;7.20;;;3.37;;
6109;SDS011;3085;49.444;11.054;2023-02-01T06:01:57;5.07;;;3.73;;
6109;SDS011;3085;49.444;11.054;2023-02-01T06:04:24;4.90;;;3.60;;
6109;SDS011;3085;49.444;11.054;2023-02-01T06:06:52;5.40;;;3.53;;
6109;SDS011;3085;49.444;11.054;2023-02-01T06:09:19;3.80;;;2.70;;
6109;SDS011;3085;49.444;11.054;2023-02-01T06:11:46;4.60;;;2.87;;
6109;SDS011;3085;49.444;11.054;2023-02-01T06:14:13;5.10;;;2.70;;
6109;SDS011;3085;49.444;11.054;2023-02-01T06:16:40;3.93;;;2.83;;
6109;SDS011;3085;49.444;11.054;2023-02-01T06:19:07;4.00;;;2.07;;
6109;SDS011;3085;49.444;11.054;2023-02-01T06:21:34;7.27;;;2.80;;
6109;SDS011;3085;49.444;11.054;2023-02-01T06:24:03;2.90;;;2.40;;
6109;SDS011;3085;49.444;11.054;2023-02-01T06:26:31;3.33;;;2.70;;
6109;SDS011;3085;49.444;11.054;2023-02-01T06:28:58;4.07;;;2.73;;
6109;SDS011;3085;49.444;11.054;2023-02-01T06:31:25;4.80;;;3.67;;
6109;SDS011;3085;49.444;11.054;2023-02-01T06:33:52;2.40;;;2.20;;
6109;SDS011;3085;49.444;11.054;2023-02-01T06:36:19;2.90;;;2.30;;
6109;SDS011;3085;49.444;11.054;2023-02-01T06:38:46;3.83;;;2.67;;
6109;SDS011;3085;49.444;11.054;2023-02-01T06:41:15;2.90;;;2.50;;
6109;SDS011;3085;49.444;11.054;2023-02-01T06:43:42;3.30;;;2.30;;
6109;SDS011;3085;49.444;11.054;2023-02-01T06:46:11;2.33;;;2.10;;
6109;SDS011;3085;49.444;11.054;2023-02-01T06:48:38;3.73;;;2.50;;
6109;SDS011;3085;49.444;11.054;2023-02-01T06:51:05;2.63;;;2.27;;
6109;SDS011;3085;49.444;11.054;2023-02-01T06:53:42;2.70;;;2.27;;
6109;SDS011;3085;49.444;11.054;2023-02-01T06:56:08;3.40;;;1.90;;
6109;SDS011;3085;49.444;11.054;2023-02-01T06:58:37;2.87;;;2.40;;
6109;SDS011;3085;49.444;11.054;2023-02-01T07:01:04;2.83;;;2.13;;
6109;SDS011;3085;49.444;11.054;2023-02-01T07:03:32;2.43;;;2.10;;
6109;SDS011;3085;49.444;11.054;2023-02-01T07:05:59;2.53;;;2.00;;
6109;SDS011;3085;49.444;11.054;2023-02-01T07:08:26;3.03;;;2.10;;
6109;SDS011;3085;49.444;11.054;2023-02-01T07:10:53;4.67;;;2.37;;
6109;SDS011;3085;49.444;11.054;2023-02-01T07:13:20;2.23;;;2.03;;
6109;SDS011;3085;49.444;11.054;2023-02-01T07:15:48;9.57;;;2.60;;
6109;SDS011;3085;49.444;11.054;2023-02-01T07:18:18;1.80;;;1.70;;
6109;SDS011;3085;49.444;11.054;2023-02-01T07:20:49;4.73;;;2.77;;
6109;SDS011;3085;49.444;11.054;2023-02-01T07:23:16;5.43;;;2.77;;
6109;SDS011;3085;49.444;11.054;2023-02-01T07:25:44;5.30;;;2.47;;
6109;SDS011;3085;49.444;11.054;2023-02-01T07:28:10;2.87;;;2.30;;
6109;SDS011;3085;49.444;11.054;2023-02-01T07:30:37;3.00;;;2.37;;
6109;SDS011;3085;49.444;11.054;2023-02-01T07:33:05;5.17;;;2.33;;
6109;SDS011;3085;49.444;11.054;2023-02-01T07:35:32;3.00;;;2.17;;
6109;SDS011;3085;49.444;11.054;2023-02-01T07:38:00;6.17;;;2.57;;
6109;SDS011;3085;49.444;11.054;2023-02-01T07:40:27;6.50;;;2.50;;
6109;SDS011;3085;49.444;11.054;2023-02-01T07:42:55;3.60;;;2.67;;
6109;SDS011;3085;49.444;11.054;2023-02-01T07:45:22;3.90;;;2.83;;
6109;SDS011;3085;49.444;11.054;2023-02-01T07:47:51;8.30;;;3.00;;
6109;SDS011;3085;49.444;11.054;2023-02-01T07:50:19;5.70;;;2.80;;
6109;SDS011;3085;49.444;11.054;2023-02-01T07:52:46;4.50;;;2.63;;
6109;SDS011;3085;49.444;11.054;2023-02-01T07:55:13;3.10;;;2.33;;
6109;SDS011;3085;49.444;11.054;2023-02-01T07:57:40;14.90;;;2.50;;
6109;SDS011;3085;49.444;11.054;2023-02-01T08:00:08;4.63;;;2.90;;
6109;SDS011;3085;49.444;11.054;2023-02-01T08:02:52;4.83;;;3.20;;
6109;SDS011;3085;49.444;11.054;2023-02-01T08:05:21;2.97;;;2.60;;
6109;SDS011;3085;49.444;11.054;2023-02-01T08:07:48;3.37;;;2.70;;
6109;SDS011;3085;49.444;11.054;2023-02-01T08:10:15;5.20;;;2.90;;
6109;SDS011;3085;49.444;11.054;2023-02-01T08:12:42;4.63;;;2.47;;
6109;SDS011;3085;49.444;11.054;2023-02-01T08:15:12;3.50;;;2.10;;
6109;SDS011;3085;49.444;11.054;2023-02-01T08:17:39;5.43;;;3.07;;
6109;SDS011;3085;49.444;11.054;2023-02-01T08:20:07;2.50;;;2.20;;
6109;SDS011;3085;49.444;11.054;2023-02-01T08:22:36;2.37;;;2.03;;
6109;SDS011;3085;49.444;11.054;2023-02-01T08:25:03;4.37;;;3.40;;
6109;SDS011;3085;49.444;11.054;2023-02-01T08:27:32;5.00;;;2.80;;
6109;SDS011;3085;49.444;11.054;2023-02-01T08:29:59;2.67;;;1.90;;
6109;SDS011;3085;49.444;11.054;2023-02-01T08:32:25;5.17;;;2.40;;
6109;SDS011;3085;49.444;11.054;2023-02-01T08:34:52;3.67;;;2.37;;
6109;SDS011;3085;49.444;11.054;2023-02-01T08:37:19;5.30;;;2.83;;
6109;SDS011;3085;49.444;11.054;2023-02-01T08:39:48;2.10;;;1.90;;
6109;SDS011;3085;49.444;11.054;2023-02-01T08:42:15;2.67;;;2.03;;
6109;SDS011;3085;49.444;11.054;2023-02-01T08:45:00;3.37;;;2.40;;
6109;SDS011;3085;49.444;11.054;2023-02-01T08:47:27;3.30;;;2.43;;
6109;SDS011;3085;49.444;11.054;2023-02-01T08:49:54;3.23;;;2.30;;
6109;SDS011;3085;49.444;11.054;2023-02-01T08:52:20;6.00;;;2.30;;
6109;SDS011;3085;49.444;11.054;2023-02-01T08:54:48;2.73;;;2.17;;
6109;SDS011;3085;49.444;11.054;2023-02-01T08:57:15;2.53;;;2.33;;
6109;SDS011;3085;49.444;11.054;2023-02-01T08:59:42;3.10;;;2.40;;
6109;SDS011;3085;49.444;11.054;2023-02-01T09:02:11;3.83;;;2.23;;
6109;SDS011;3085;49.444;11.054;2023-02-01T09:04:38;4.70;;;2.47;;
6109;SDS011;3085;49.444;11.054;2023-02-01T09:07:06;5.40;;;2.53;;
6109;SDS011;3085;49.444;11.054;2023-02-01T09:09:33;5.10;;;2.90;;
6109;SDS011;3085;49.444;11.054;2023-02-01T09:12:01;4.97;;;2.13;;
6109;SDS011;3085;49.444;11.054;2023-02-01T09:14:28;2.60;;;2.00;;
6109;SDS011;3085;49.444;11.054;2023-02-01T09:16:55;9.30;;;2.63;;
6109;SDS011;3085;49.444;11.054;2023-02-01T09:19:22;8.00;;;2.77;;
6109;SDS011;3085;49.444;11.054;2023-02-01T09:21:48;5.00;;;2.40;;
6109;SDS011;3085;49.444;11.054;2023-02-01T09:24:15;5.50;;;2.47;;
6109;SDS011;3085;49.444;11.054;2023-02-01T09:26:42;3.30;;;2.17;;
6109;SDS011;3085;49.444;11.054;2023-02-01T09:29:10;8.00;;;2.30;;
6109;SDS011;3085;49.444;11.054;2023-02-01T09:31:37;4.20;;;2.03;;
6109;SDS011;3085;49.444;11.054;2023-02-01T09:34:04;3.03;;;2.30;;
6109;SDS011;3085;49.444;11.054;2023-02-01T09:36:31;7.80;;;2.17;;
6109;SDS011;3085;49.444;11.054;2023-02-01T09:38:59;4.50;;;2.73;;
6109;SDS011;3085;49.444;11.054;2023-02-01T09:41:29;1.77;;;1.67;;
6109;SDS011;3085;49.444;11.054;2023-02-01T09:44:05;2.13;;;1.53;;
6109;SDS011;3085;49.444;11.054;2023-02-01T09:46:42;2.33;;;1.93;;
6109;SDS011;3085;49.444;11.054;2023-02-01T09:49:10;2.97;;;2.37;;
6109;SDS011;3085;49.444;11.054;2023-02-01T09:51:43;2.80;;;1.80;;
6109;SDS011;3085;49.444;11.054;2023-02-01T09:54:13;4.77;;;2.10;;
6109;SDS011;3085;49.444;11.054;2023-02-01T09:56:45;21.03;;;2.13;;
6109;SDS011;3085;49.444;11.054;2023-02-01T09:59:18;2.07;;;1.83;;
6109;SDS011;3085;49.444;11.054;2023-02-01T10:01:57;2.43;;;2.07;;
6109;SDS011;3085;49.444;11.054;2023-02-01T10:04:25;4.87;;;2.00;;
6109;SDS011;3085;49.444;11.054;2023-02-01T10:07:04;12.03;;;2.00;;
6109;SDS011;3085;49.444;11.054;2023-02-01T10:09:45;6.30;;;2.20;;
6109;SDS011;3085;49.444;11.054;2023-02-01T10:12:36;11.17;;;2.53;;
6109;SDS011;3085;49.444;11.054;2023-02-01T10:15:41;2.57;;;1.80;;
6109;SDS011;3085;49.444;11.054;2023-02-01T10:18:32;3.70;;;2.37;;
6109;SDS011;3085;49.444;11.054;2023-02-01T10:21:09;8.07;;;2.90;;
6109;SDS011;3085;49.444;11.054;2023-02-01T10:23:49;19.67;;;4.30;;
6109;SDS011;3085;49.444;11.054;2023-02-01T10:26:42;6.03;;;3.07;;
6109;SDS011;3085;49.444;11.054;2023-02-01T10:29:12;9.93;;;3.33;;
6109;SDS011;3085;49.444;11.054;2023-02-01T10:31:44;5.70;;;3.03;;
6109;SDS011;3085;49.444;11.054;2023-02-01T10:34:13;10.53;;;3.33;;
6109;SDS011;3085;49.444;11.054;2023-02-01T10:36:50;3.20;;;2.40;;
6109;SDS011;3085;49.444;11.054;2023-02-01T10:39:20;5.77;;;2.63;;
6109;SDS011;3085;49.444;11.054;2023-02-01T10:41:47;3.73;;;2.50;;
6109;SDS011;3085;49.444;11.054;2023-02-01T10:44:15;3.83;;;2.63;;
6109;SDS011;3085;49.444;11.054;2023-02-01T10:46:48;5.33;;;2.67;;
6109;SDS011;3085;49.444;11.054;2023-02-01T10:49:17;3.60;;;2.60;;
6109;SDS011;3085;49.444;11.054;2023-02-01T10:51:46;7.50;;;3.50;;
6109;SDS011;3085;49.444;11.054;2023-02-01T10:54:18;2.57;;;2.10;;
6109;SDS011;3085;49.444;11.054;2023-02-01T10:56:46;6.20;;;2.30;;
6109;SDS011;3085;49.444;11.054;2023-02-01T10:59:15;12.93;;;3.03;;
6109;SDS011;3085;49.444;11.054;2023-02-01T11:01:43;6.73;;;2.70;;
6109;SDS011;3085;49.444;11.054;2023-02-01T11:04:13;4.60;;;2.80;;
6109;SDS011;3085;49.444;11.054;2023-02-01T11:06:41;7.90;;;2.47;;
6109;SDS011;3085;49.444;11.054;2023-02-01T11:09:10;4.83;;;2.90;;
6109;SDS011;3085;49.444;11.054;2023-02-01T11:11:58;5.70;;;2.67;;
6109;SDS011;3085;49.444;11.054;2023-02-01T11:14:27;17.73;;;3.40;;
6109;SDS011;3085;49.444;11.054;2023-02-01T11:17:00;5.40;;;2.40;;
6109;SDS011;3085;49.444;11.054;2023-02-01T11:19:40;8.73;;;3.50;;
6109;SDS011;3085;49.444;11.054;2023-02-01T11:22:10;3.80;;;2.80;;
6109;SDS011;3085;49.444;11.054;2023-02-01T11:24:39;3.00;;;2.20;;
6109;SDS011;3085;49.444;11.054;2023-02-01T11:27:12;3.77;;;2.33;;
6109;SDS011;3085;49.444;11.054;2023-02-01T11:29:42;21.03;;;2.40;;
6109;SDS011;3085;49.444;11.054;2023-02-01T11:32:12;7.13;;;2.30;;
6109;SDS011;3085;49.444;11.054;2023-02-01T11:34:41;4.30;;;2.73;;
6109;SDS011;3085;49.444;11.054;2023-02-01T11:37:14;7.33;;;2.90;;
6109;SDS011;3085;49.444;11.054;2023-02-01T11:39:52;6.63;;;2.60;;
6109;SDS011;3085;49.444;11.054;2023-02-01T11:42:21;7.60;;;2.40;;
6109;SDS011;3085;49.444;11.054;2023-02-01T11:44:48;2.70;;;2.50;;
6109;SDS011;3085;49.444;11.054;2023-02-01T11:47:18;7.93;;;2.37;;
6109;SDS011;3085;49.444;11.054;2023-02-01T11:49:52;7.13;;;2.40;;
6109;SDS011;3085;49.444;11.054;2023-02-01T11:52:25;6.93;;;2.30;;
6109;SDS011;3085;49.444;11.054;2023-02-01T11:55:05;5.17;;;2.20;;
6109;SDS011;3085;49.444;11.054;2023-02-01T11:57:46;4.07;;;2.30;;
6109;SDS011;3085;49.444;11.054;2023-02-01T12:00:26;11.33;;;3.20;;
6109;SDS011;3085;49.444;11.054;2023-02-01T12:05:56;7.50;;;3.13;;
6109;SDS011;3085;49.444;11.054;2023-02-01T12:08:40;4.10;;;2.10;;
6109;SDS011;3085;49.444;11.054;2023-02-01T12:11:28;5.50;;;2.90;;
6109;SDS011;3085;49.444;11.054;2023-02-01T12:14:06;4.60;;;2.00;;
6109;SDS011;3085;49.444;11.054;2023-02-01T12:16:45;9.50;;;3.23;;
6109;SDS011;3085;49.444;11.054;2023-02-01T12:19:20;3.40;;;2.23;;
6109;SDS011;3085;49.444;11.054;2023-02-01T12:22:03;2.50;;;1.90;;
6109;SDS011;3085;49.444;11.054;2023-02-01T12:24:51;2.90;;;2.33;;
6109;SDS011;3085;49.444;11.054;2023-02-01T12:27:50;13.53;;;2.43;;
6109;SDS011;3085;49.444;11.054;2023-02-01T12:30:46;4.23;;;2.80;;
6109;SDS011;3085;49.444;11.054;2023-02-01T12:33:29;8.13;;;2.50;;
6109;SDS011;3085;49.444;11.054;2023-02-01T12:36:13;7.10;;;2.40;;
6109;SDS011;3085;49.444;11.054;2023-02-01T12:38:49;8.93;;;2.57;;
6109;SDS011;3085;49.444;11.054;2023-02-01T12:41:25;6.20;;;2.50;;
6109;SDS011;3085;49.444;11.054;2023-02-01T12:44:02;6.53;;;2.53;;
6109;SDS011;3085;49.444;11.054;2023-02-01T12:46:35;8.30;;;2.40;;
6109;SDS011;3085;49.444;11.054;2023-02-01T12:49:08;3.00;;;2.17;;
6109;SDS011;3085;49.444;11.054;2023-02-01T12:51:40;12.00;;;2.20;;
6109;SDS011;3085;49.444;11.054;2023-02-01T12:54:13;5.70;;;2.27;;
6109;SDS011;3085;49.444;11.054;2023-02-01T12:56:46;7.20;;;2.70;;
6109;SDS011;3085;49.444;11.054;2023-02-01T12:59:18;6.60;;;2.43;;
6109;SDS011;3085;49.444;11.054;2023-02-01T13:01:49;6.00;;;3.10;;
6109;SDS011;3085;49.444;11.054;2023-02-01T13:04:25;9.80;;;2.30;;
6109;SDS011;3085;49.444;11.054;2023-02-01T13:06:58;10.20;;;2.63;;
6109;SDS011;3085;49.444;11.054;2023-02-01T13:09:34;3.93;;;1.90;;
6109;SDS011;3085;49.444;11.054;2023-02-01T13:12:08;13.07;;;2.47;;
6109;SDS011;3085;49.444;11.054;2023-02-01T13:14:40;8.93;;;4.17;;
6109;SDS011;3085;49.444;11.054;2023-02-01T13:17:12;7.27;;;2.50;;
6109;SDS011;3085;49.444;11.054;2023-02-01T13:19:43;9.20;;;2.50;;
6109;SDS011;3085;49.444;11.054;2023-02-01T13:22:15;8.80;;;2.53;;
6109;SDS011;3085;49.444;11.054;2023-02-01T13:24:49;4.63;;;2.27;;
6109;SDS011;3085;49.444;11.054;2023-02-01T13:27:17;2.83;;;2.10;;
6109;SDS011;3085;49.444;11.054;2023-02-01T13:29:46;5.67;;;2.43;;
6109;SDS011;3085;49.444;11.054;2023-02-01T13:32:25;8.73;;;3.27;;
6109;SDS011;3085;49.444;11.054;2023-02-01T13:35:17;9.00;;;2.77;;
6109;SDS011;3085;49.444;11.054;2023-02-01T13:38:05;7.90;;;2.63;;
6109;SDS011;3085;49.444;11.054;2023-02-01T13:40:47;11.10;;;3.33;;
6109;SDS011;3085;49.444;11.054;2023-02-01T13:43:26;5.17;;;2.40;;
6109;SDS011;3085;49.444;11.054;2023-02-01T13:45:56;3.87;;;2.33;;
6109;SDS011;3085;49.444;11.054;2023-02-01T13:48:29;12.33;;;3.50;;
6109;SDS011;3085;49.444;11.054;2023-02-01T13:51:02;4.80;;;2.17;;
6109;SDS011;3085;49.444;11.054;2023-02-01T13:53:30;6.73;;;2.63;;
6109;SDS011;3085;49.444;11.054;2023-02-01T13:56:00;6.10;;;2.53;;
6109;SDS011;3085;49.444;11.054;2023-02-01T13:58:32;20.13;;;3.40;;
6109;SDS011;3085;49.444;11.054;2023-02-01T14:07:19;5.30;;;2.10;;
6109;SDS011;3085;49.444;11.054;2023-02-01T14:09:48;7.23;;;1.90;;
6109;SDS011;3085;49.444;11.054;2023-02-01T14:15:18;8.00;;;3.53;;
6109;SDS011;3085;49.444;11.054;2023-02-01T14:17:48;6.17;;;2.30;;
6109;SDS011;3085;49.444;11.054;2023-02-01T14:20:36;5.03;;;2.40;;
6109;SDS011;3085;49.444;11.054;2023-02-01T14:23:11;6.40;;;2.30;;
6109;SDS011;3085;49.444;11.054;2023-02-01T14:25:43;6.00;;;2.70;;
6109;SDS011;3085;49.444;11.054;2023-02-01T14:28:16;16.93;;;2.67;;
6109;SDS011;3085;49.444;11.054;2023-02-01T14:30:50;8.50;;;2.17;;
6109;SDS011;3085;49.444;11.054;2023-02-01T14:33:18;7.60;;;3.40;;
6109;SDS011;3085;49.444;11.054;2023-02-01T14:35:59;5.30;;;2.90;;
6109;SDS011;3085;49.444;11.054;2023-02-01T14:38:32;15.90;;;2.93;;
6109;SDS011;3085;49.444;11.054;2023-02-01T14:41:13;4.10;;;2.13;;
6109;SDS011;3085;49.444;11.054;2023-02-01T14:47:03;3.40;;;2.20;;
6109;SDS011;3085;49.444;11.054;2023-02-01T14:50:02;2.67;;;1.77;;
6109;SDS011;3085;49.444;11.054;2023-02-01T14:52:45;2.00;;;1.70;;
6109;SDS011;3085;49.444;11.054;2023-02-01T14:55:16;6.40;;;2.47;;
6109;SDS011;3085;49.444;11.054;2023-02-01T14:57:48;2.00;;;1.80;;
6109;SDS011;3085;49.444;11.054;2023-02-01T15:00:21;4.60;;;2.10;;
6109;SDS011;3085;49.444;11.054;2023-02-01T15:02:51;9.50;;;2.83;;
6109;SDS011;3085;49.444;11.054;2023-02-01T15:05:22;8.03;;;2.37;;
6109;SDS011;3085;49.444;11.054;2023-02-01T15:08:00;5.67;;;2.63;;
6109;SDS011;3085;49.444;11.054;2023-02-01T15:10:32;4.93;;;2.27;;
6109;SDS011;3085;49.444;11.054;2023-02-01T15:13:11;11.00;;;2.30;;
6109;SDS011;3085;49.444;11.054;2023-02-01T15:15:46;7.17;;;2.83;;
6109;SDS011;3085;49.444;11.054;2023-02-01T15:18:26;12.90;;;2.63;;
6109;SDS011;3085;49.444;11.054;2023-02-01T15:20:55;8.77;;;2.97;;
6109;SDS011;3085;49.444;11.054;2023-02-01T15:23:23;5.30;;;2.77;;
6109;SDS011;3085;49.444;11.054;2023-02-01T15:25:50;2.70;;;2.00;;
6109;SDS011;3085;49.444;11.054;2023-02-01T15:28:17;3.10;;;2.50;;
6109;SDS011;3085;49.444;11.054;2023-02-01T15:30:52;5.73;;;2.60;;
6109;SDS011;3085;49.444;11.054;2023-02-01T15:33:21;4.67;;;2.63;;
6109;SDS011;3085;49.444;11.054;2023-02-01T15:35:50;7.67;;;2.87;;
6109;SDS011;3085;49.444;11.054;2023-02-01T15:38:19;8.93;;;3.63;;
6109;SDS011;3085;49.444;11.054;2023-02-01T15:40:57;3.77;;;2.50;;
6109;SDS011;3085;49.444;11.054;2023-02-01T15:43:27;10.80;;;2.40;;
6109;SDS011;3085;49.444;11.054;2023-02-01T15:45:57;14.00;;;2.40;;
6109;SDS011;3085;49.444;11.054;2023-02-01T15:48:25;10.23;;;2.60;;